sensor_id;sensor_type;location;lat;lon;timestamp;P1;durP1;ratioP1;P2;durP2;ratioP2
24411;SDS011;12544;46.760;15.942;2023-10-31T00:01:47;5.28;;;2.20;;
24411;SDS011;12544;46.760;15.942;2023-10-31T00:04:14;4.40;;;2.00;;
24411;SDS011;12544;46.760;15.942;2023-10-31T00:06:39;3.38;;;2.00;;
24411;SDS011;12544;46.760;15.942;2023-10-31T00:09:05;3.50;;;2.00;;
24411;SDS011;12544;46.760;15.942;2023-10-31T00:11:31;4.93;;;2.40;;
24411;SDS011;12544;46.760;15.942;2023-10-31T00:13:57;4.22;;;1.90;;
24411;SDS011;12544;46.760;15.942;2023-10-31T00:16:22;4.10;;;1.80;;
24411;SDS011;12544;46.760;15.942;2023-10-31T00:18:48;3.17;;;1.92;;
24411;SDS011;12544;46.760;15.942;2023-10-31T00:21:14;4.13;;;1.60;;
24411;SDS011;12544;46.760;15.942;2023-10-31T00:23:43;3.80;;;1.75;;
24411;SDS011;12544;46.760;15.942;2023-10-31T00:26:09;3.88;;;2.00;;
24411;SDS011;12544;46.760;15.942;2023-10-31T00:28:35;3.13;;;2.10;;
24411;SDS011;12544;46.760;15.942;2023-10-31T00:31:01;4.35;;;2.25;;
24411;SDS011;12544;46.760;15.942;2023-10-31T00:33:28;3.75;;;2.13;;
24411;SDS011;12544;46.760;15.942;2023-10-31T00:35:54;3.85;;;2.05;;
24411;SDS011;12544;46.760;15.942;2023-10-31T00:38:20;2.00;;;1.50;;
24411;SDS011;12544;46.760;15.942;2023-10-31T00:40:46;3.90;;;1.98;;
24411;SDS011;12544;46.760;15.942;2023-10-31T00:43:12;5.25;;;2.08;;
24411;SDS011;12544;46.760;15.942;2023-10-31T00:45:37;5.22;;;1.95;;
24411;SDS011;12544;46.760;15.942;2023-10-31T00:48:03;3.80;;;2.10;;
24411;SDS011;12544;46.760;15.942;2023-10-31T00:50:29;3.17;;;1.83;;
24411;SDS011;12544;46.760;15.942;2023-10-31T00:52:54;3.45;;;1.85;;
24411;SDS011;12544;46.760;15.942;2023-10-31T00:55:20;8.82;;;2.92;;
24411;SDS011;12544;46.760;15.942;2023-10-31T00:57:46;5.10;;;2.05;;
24411;SDS011;12544;46.760;15.942;2023-10-31T01:00:11;5.80;;;2.25;;
24411;SDS011;12544;46.760;15.942;2023-10-31T01:02:37;4.32;;;1.98;;
24411;SDS011;12544;46.760;15.942;2023-10-31T01:05:04;3.63;;;2.38;;
24411;SDS011;12544;46.760;15.942;2023-10-31T01:07:30;4.95;;;2.58;;
24411;SDS011;12544;46.760;15.942;2023-10-31T01:09:55;4.65;;;1.80;;
24411;SDS011;12544;46.760;15.942;2023-10-31T01:12:21;6.50;;;2.95;;
24411;SDS011;12544;46.760;15.942;2023-10-31T01:14:47;4.82;;;2.63;;
24411;SDS011;12544;46.760;15.942;2023-10-31T01:17:12;5.03;;;2.42;;
24411;SDS011;12544;46.760;15.942;2023-10-31T01:19:38;5.20;;;2.22;;
24411;SDS011;12544;46.760;15.942;2023-10-31T01:22:03;7.32;;;2.35;;
24411;SDS011;12544;46.760;15.942;2023-10-31T01:24:29;4.22;;;2.05;;
24411;SDS011;12544;46.760;15.942;2023-10-31T01:26:55;2.90;;;1.90;;
24411;SDS011;12544;46.760;15.942;2023-10-31T01:29:20;5.70;;;1.65;;
24411;SDS011;12544;46.760;15.942;2023-10-31T01:31:46;4.55;;;2.15;;
24411;SDS011;12544;46.760;15.942;2023-10-31T01:34:12;3.15;;;2.30;;
24411;SDS011;12544;46.760;15.942;2023-10-31T01:36:37;2.72;;;1.88;;
24411;SDS011;12544;46.760;15.942;2023-10-31T01:39:03;5.25;;;2.17;;
24411;SDS011;12544;46.760;15.942;2023-10-31T01:41:29;3.78;;;1.73;;
24411;SDS011;12544;46.760;15.942;2023-10-31T01:43:54;3.25;;;1.55;;
24411;SDS011;12544;46.760;15.942;2023-10-31T01:46:20;3.55;;;1.63;;
24411;SDS011;12544;46.760;15.942;2023-10-31T01:48:46;4.28;;;1.90;;
24411;SDS011;12544;46.760;15.942;2023-10-31T01:51:11;5.03;;;1.73;;
24411;SDS011;12544;46.760;15.942;2023-10-31T01:53:37;4.32;;;2.08;;
24411;SDS011;12544;46.760;15.942;2023-10-31T01:56:04;2.85;;;1.60;;
24411;SDS011;12544;46.760;15.942;2023-10-31T01:58:31;4.07;;;1.70;;
24411;SDS011;12544;46.760;15.942;2023-10-31T02:00:59;7.95;;;2.25;;
24411;SDS011;12544;46.760;15.942;2023-10-31T02:03:26;3.70;;;1.65;;
24411;SDS011;12544;46.760;15.942;2023-10-31T02:05:52;4.25;;;1.70;;
24411;SDS011;12544;46.760;15.942;2023-10-31T02:08:19;4.65;;;2.00;;
24411;SDS011;12544;46.760;15.942;2023-10-31T02:10:45;5.10;;;1.90;;
24411;SDS011;12544;46.760;15.942;2023-10-31T02:13:14;3.30;;;1.70;;
24411;SDS011;12544;46.760;15.942;2023-10-31T02:15:41;3.30;;;1.60;;
24411;SDS011;12544;46.760;15.942;2023-10-31T02:18:07;3.63;;;1.50;;
24411;SDS011;12544;46.760;15.942;2023-10-31T02:20:34;3.53;;;1.88;;
24411;SDS011;12544;46.760;15.942;2023-10-31T02:23:00;3.15;;;1.80;;
24411;SDS011;12544;46.760;15.942;2023-10-31T02:25:27;2.72;;;1.48;;
24411;SDS011;12544;46.760;15.942;2023-10-31T02:27:53;3.50;;;1.40;;
24411;SDS011;12544;46.760;15.942;2023-10-31T02:30:19;2.30;;;1.50;;
24411;SDS011;12544;46.760;15.942;2023-10-31T02:32:44;3.45;;;1.50;;
24411;SDS011;12544;46.760;15.942;2023-10-31T02:35:10;3.95;;;1.60;;
24411;SDS011;12544;46.760;15.942;2023-10-31T02:37:36;4.50;;;1.90;;
24411;SDS011;12544;46.760;15.942;2023-10-31T02:40:02;2.40;;;1.70;;
24411;SDS011;12544;46.760;15.942;2023-10-31T02:42:28;6.30;;;1.95;;
24411;SDS011;12544;46.760;15.942;2023-10-31T02:44:53;6.32;;;2.00;;
24411;SDS011;12544;46.760;15.942;2023-10-31T02:47:19;2.78;;;1.65;;
24411;SDS011;12544;46.760;15.942;2023-10-31T02:49:45;5.68;;;2.05;;
24411;SDS011;12544;46.760;15.942;2023-10-31T02:52:10;3.42;;;1.80;;
24411;SDS011;12544;46.760;15.942;2023-10-31T02:54:36;5.45;;;2.20;;
24411;SDS011;12544;46.760;15.942;2023-10-31T02:57:03;6.50;;;2.00;;
24411;SDS011;12544;46.760;15.942;2023-10-31T02:59:29;5.90;;;2.17;;
24411;SDS011;12544;46.760;15.942;2023-10-31T03:01:55;5.05;;;2.30;;
24411;SDS011;12544;46.760;15.942;2023-10-31T03:04:21;4.25;;;2.17;;
24411;SDS011;12544;46.760;15.942;2023-10-31T03:06:47;3.75;;;2.15;;
24411;SDS011;12544;46.760;15.942;2023-10-31T03:09:12;9.32;;;2.70;;
24411;SDS011;12544;46.760;15.942;2023-10-31T03:11:38;4.03;;;2.22;;
24411;SDS011;12544;46.760;15.942;2023-10-31T03:14:03;3.90;;;2.45;;
24411;SDS011;12544;46.760;15.942;2023-10-31T03:16:29;5.15;;;3.10;;
24411;SDS011;12544;46.760;15.942;2023-10-31T03:18:55;3.72;;;2.33;;
24411;SDS011;12544;46.760;15.942;2023-10-31T03:21:21;5.18;;;2.65;;
24411;SDS011;12544;46.760;15.942;2023-10-31T03:23:48;4.35;;;1.88;;
24411;SDS011;12544;46.760;15.942;2023-10-31T03:26:17;4.43;;;2.30;;
24411;SDS011;12544;46.760;15.942;2023-10-31T03:28:43;4.07;;;2.67;;
24411;SDS011;12544;46.760;15.942;2023-10-31T03:31:09;5.38;;;2.20;;
24411;SDS011;12544;46.760;15.942;2023-10-31T03:33:35;5.28;;;1.80;;
24411;SDS011;12544;46.760;15.942;2023-10-31T03:36:01;6.47;;;2.63;;
24411;SDS011;12544;46.760;15.942;2023-10-31T03:38:27;4.15;;;1.80;;
24411;SDS011;12544;46.760;15.942;2023-10-31T03:40:53;4.72;;;1.92;;
24411;SDS011;12544;46.760;15.942;2023-10-31T03:43:19;3.30;;;2.13;;
24411;SDS011;12544;46.760;15.942;2023-10-31T03:45:45;6.95;;;2.13;;
24411;SDS011;12544;46.760;15.942;2023-10-31T03:48:12;4.88;;;2.40;;
24411;SDS011;12544;46.760;15.942;2023-10-31T03:50:37;3.42;;;1.63;;
24411;SDS011;12544;46.760;15.942;2023-10-31T03:53:03;4.82;;;2.50;;
24411;SDS011;12544;46.760;15.942;2023-10-31T03:55:29;3.25;;;1.70;;
24411;SDS011;12544;46.760;15.942;2023-10-31T03:57:55;4.75;;;2.00;;
24411;SDS011;12544;46.760;15.942;2023-10-31T04:00:21;6.70;;;2.13;;
24411;SDS011;12544;46.760;15.942;2023-10-31T04:02:47;6.72;;;2.17;;
24411;SDS011;12544;46.760;15.942;2023-10-31T04:05:12;5.50;;;1.83;;
24411;SDS011;12544;46.760;15.942;2023-10-31T04:07:38;4.80;;;2.10;;
24411;SDS011;12544;46.760;15.942;2023-10-31T04:10:04;5.40;;;2.00;;
24411;SDS011;12544;46.760;15.942;2023-10-31T04:12:30;5.65;;;1.80;;
24411;SDS011;12544;46.760;15.942;2023-10-31T04:14:56;2.63;;;1.58;;
24411;SDS011;12544;46.760;15.942;2023-10-31T04:17:22;2.90;;;1.90;;
24411;SDS011;12544;46.760;15.942;2023-10-31T04:19:47;5.72;;;2.30;;
24411;SDS011;12544;46.760;15.942;2023-10-31T04:22:13;4.03;;;1.80;;
24411;SDS011;12544;46.760;15.942;2023-10-31T04:24:39;3.58;;;2.28;;
24411;SDS011;12544;46.760;15.942;2023-10-31T04:27:05;5.28;;;2.05;;
24411;SDS011;12544;46.760;15.942;2023-10-31T04:29:32;3.88;;;1.58;;
24411;SDS011;12544;46.760;15.942;2023-10-31T04:31:58;3.80;;;1.88;;
24411;SDS011;12544;46.760;15.942;2023-10-31T04:34:23;6.00;;;1.90;;
24411;SDS011;12544;46.760;15.942;2023-10-31T04:36:49;6.13;;;1.95;;
24411;SDS011;12544;46.760;15.942;2023-10-31T04:39:15;3.00;;;2.08;;
24411;SDS011;12544;46.760;15.942;2023-10-31T04:41:40;3.92;;;1.55;;
24411;SDS011;12544;46.760;15.942;2023-10-31T04:44:06;3.92;;;1.80;;
24411;SDS011;12544;46.760;15.942;2023-10-31T04:46:32;3.63;;;1.92;;
24411;SDS011;12544;46.760;15.942;2023-10-31T04:48:58;13.07;;;1.85;;
24411;SDS011;12544;46.760;15.942;2023-10-31T04:51:24;4.75;;;1.80;;
24411;SDS011;12544;46.760;15.942;2023-10-31T04:53:49;5.53;;;1.83;;
24411;SDS011;12544;46.760;15.942;2023-10-31T04:56:15;5.00;;;2.58;;
24411;SDS011;12544;46.760;15.942;2023-10-31T04:58:42;4.93;;;1.80;;
24411;SDS011;12544;46.760;15.942;2023-10-31T05:01:11;3.80;;;1.70;;
24411;SDS011;12544;46.760;15.942;2023-10-31T05:03:37;4.72;;;1.65;;
24411;SDS011;12544;46.760;15.942;2023-10-31T05:06:03;5.05;;;1.50;;
24411;SDS011;12544;46.760;15.942;2023-10-31T05:08:30;8.05;;;1.98;;
24411;SDS011;12544;46.760;15.942;2023-10-31T05:10:56;4.38;;;1.70;;
24411;SDS011;12544;46.760;15.942;2023-10-31T05:13:23;5.93;;;1.70;;
24411;SDS011;12544;46.760;15.942;2023-10-31T05:15:49;3.90;;;1.23;;
24411;SDS011;12544;46.760;15.942;2023-10-31T05:18:15;5.40;;;1.58;;
24411;SDS011;12544;46.760;15.942;2023-10-31T05:20:41;4.43;;;1.45;;
24411;SDS011;12544;46.760;15.942;2023-10-31T05:23:07;4.38;;;1.65;;
24411;SDS011;12544;46.760;15.942;2023-10-31T05:25:33;2.75;;;1.90;;
24411;SDS011;12544;46.760;15.942;2023-10-31T05:27:59;3.58;;;2.20;;
24411;SDS011;12544;46.760;15.942;2023-10-31T05:30:25;3.85;;;1.50;;
24411;SDS011;12544;46.760;15.942;2023-10-31T05:32:51;3.53;;;1.25;;
24411;SDS011;12544;46.760;15.942;2023-10-31T05:35:17;2.58;;;1.23;;
24411;SDS011;12544;46.760;15.942;2023-10-31T05:37:43;3.55;;;1.20;;
24411;SDS011;12544;46.760;15.942;2023-10-31T05:40:09;2.35;;;1.20;;
24411;SDS011;12544;46.760;15.942;2023-10-31T05:42:35;2.22;;;1.20;;
24411;SDS011;12544;46.760;15.942;2023-10-31T05:45:01;2.30;;;1.60;;
24411;SDS011;12544;46.760;15.942;2023-10-31T05:47:26;4.05;;;1.50;;
24411;SDS011;12544;46.760;15.942;2023-10-31T05:49:53;4.43;;;1.30;;
24411;SDS011;12544;46.760;15.942;2023-10-31T05:52:18;2.92;;;1.20;;
24411;SDS011;12544;46.760;15.942;2023-10-31T05:54:44;2.00;;;1.10;;
24411;SDS011;12544;46.760;15.942;2023-10-31T05:57:10;5.05;;;1.55;;
24411;SDS011;12544;46.760;15.942;2023-10-31T05:59:35;2.03;;;1.30;;
24411;SDS011;12544;46.760;15.942;2023-10-31T06:02:01;2.50;;;1.30;;
24411;SDS011;12544;46.760;15.942;2023-10-31T06:04:26;1.98;;;1.38;;
24411;SDS011;12544;46.760;15.942;2023-10-31T06:06:52;2.97;;;1.20;;
24411;SDS011;12544;46.760;15.942;2023-10-31T06:09:18;1.95;;;1.20;;
24411;SDS011;12544;46.760;15.942;2023-10-31T06:11:44;2.03;;;1.10;;
24411;SDS011;12544;46.760;15.942;2023-10-31T06:14:10;2.00;;;1.17;;
24411;SDS011;12544;46.760;15.942;2023-10-31T06:16:42;2.33;;;1.10;;
24411;SDS011;12544;46.760;15.942;2023-10-31T06:19:09;3.45;;;1.30;;
24411;SDS011;12544;46.760;15.942;2023-10-31T06:21:35;2.28;;;1.45;;
24411;SDS011;12544;46.760;15.942;2023-10-31T06:24:01;5.63;;;1.02;;
24411;SDS011;12544;46.760;15.942;2023-10-31T06:26:29;1.85;;;1.10;;
24411;SDS011;12544;46.760;15.942;2023-10-31T06:28:55;1.67;;;0.90;;
24411;SDS011;12544;46.760;15.942;2023-10-31T06:31:21;3.30;;;1.00;;
24411;SDS011;12544;46.760;15.942;2023-10-31T06:33:47;2.60;;;0.90;;
24411;SDS011;12544;46.760;15.942;2023-10-31T06:36:12;1.67;;;1.10;;
24411;SDS011;12544;46.760;15.942;2023-10-31T06:38:38;1.88;;;0.90;;
24411;SDS011;12544;46.760;15.942;2023-10-31T06:41:04;1.83;;;1.00;;
24411;SDS011;12544;46.760;15.942;2023-10-31T06:43:29;3.15;;;1.15;;
24411;SDS011;12544;46.760;15.942;2023-10-31T06:45:55;1.77;;;1.13;;
24411;SDS011;12544;46.760;15.942;2023-10-31T06:48:22;4.88;;;1.27;;
24411;SDS011;12544;46.760;15.942;2023-10-31T06:50:47;2.20;;;1.25;;
24411;SDS011;12544;46.760;15.942;2023-10-31T06:53:13;3.40;;;1.48;;
24411;SDS011;12544;46.760;15.942;2023-10-31T06:55:39;2.92;;;1.42;;
24411;SDS011;12544;46.760;15.942;2023-10-31T06:58:04;2.15;;;1.00;;
24411;SDS011;12544;46.760;15.942;2023-10-31T07:00:30;6.30;;;1.55;;
24411;SDS011;12544;46.760;15.942;2023-10-31T07:02:56;2.70;;;1.17;;
24411;SDS011;12544;46.760;15.942;2023-10-31T07:05:23;3.40;;;1.25;;
24411;SDS011;12544;46.760;15.942;2023-10-31T07:07:50;3.42;;;1.10;;
24411;SDS011;12544;46.760;15.942;2023-10-31T07:10:16;4.15;;;1.27;;
24411;SDS011;12544;46.760;15.942;2023-10-31T07:12:41;2.65;;;1.55;;
24411;SDS011;12544;46.760;15.942;2023-10-31T07:15:07;2.22;;;1.00;;
24411;SDS011;12544;46.760;15.942;2023-10-31T07:17:33;3.70;;;1.63;;
24411;SDS011;12544;46.760;15.942;2023-10-31T07:19:59;5.35;;;1.63;;
24411;SDS011;12544;46.760;15.942;2023-10-31T07:22:25;4.38;;;2.10;;
24411;SDS011;12544;46.760;15.942;2023-10-31T07:24:51;2.30;;;1.27;;
24411;SDS011;12544;46.760;15.942;2023-10-31T07:27:17;4.65;;;1.60;;
24411;SDS011;12544;46.760;15.942;2023-10-31T07:29:43;3.20;;;1.58;;
24411;SDS011;12544;46.760;15.942;2023-10-31T07:32:09;3.25;;;1.67;;
24411;SDS011;12544;46.760;15.942;2023-10-31T07:34:35;5.88;;;2.10;;
24411;SDS011;12544;46.760;15.942;2023-10-31T07:37:01;3.67;;;1.60;;
24411;SDS011;12544;46.760;15.942;2023-10-31T07:39:26;4.50;;;1.73;;
24411;SDS011;12544;46.760;15.942;2023-10-31T07:41:52;3.20;;;1.70;;
24411;SDS011;12544;46.760;15.942;2023-10-31T07:44:18;5.82;;;2.13;;
24411;SDS011;12544;46.760;15.942;2023-10-31T07:46:43;8.38;;;2.15;;
24411;SDS011;12544;46.760;15.942;2023-10-31T07:49:09;6.75;;;1.83;;
24411;SDS011;12544;46.760;15.942;2023-10-31T07:51:35;5.57;;;2.05;;
24411;SDS011;12544;46.760;15.942;2023-10-31T07:54:00;9.05;;;2.90;;
24411;SDS011;12544;46.760;15.942;2023-10-31T07:56:26;5.75;;;2.53;;
24411;SDS011;12544;46.760;15.942;2023-10-31T07:58:52;6.60;;;2.50;;
24411;SDS011;12544;46.760;15.942;2023-10-31T08:01:18;5.00;;;2.30;;
24411;SDS011;12544;46.760;15.942;2023-10-31T08:03:45;4.53;;;2.53;;
24411;SDS011;12544;46.760;15.942;2023-10-31T08:06:12;7.78;;;2.30;;
24411;SDS011;12544;46.760;15.942;2023-10-31T08:08:38;9.00;;;3.17;;
24411;SDS011;12544;46.760;15.942;2023-10-31T08:11:06;6.88;;;2.38;;
24411;SDS011;12544;46.760;15.942;2023-10-31T08:13:33;8.43;;;2.65;;
24411;SDS011;12544;46.760;15.942;2023-10-31T08:15:58;7.78;;;2.70;;
24411;SDS011;12544;46.760;15.942;2023-10-31T08:18:24;8.13;;;3.97;;
24411;SDS011;12544;46.760;15.942;2023-10-31T08:20:50;6.78;;;3.30;;
24411;SDS011;12544;46.760;15.942;2023-10-31T08:23:19;8.25;;;2.55;;
24411;SDS011;12544;46.760;15.942;2023-10-31T08:25:44;3.95;;;2.33;;
24411;SDS011;12544;46.760;15.942;2023-10-31T08:28:10;14.73;;;3.15;;
24411;SDS011;12544;46.760;15.942;2023-10-31T08:30:36;6.03;;;2.50;;
24411;SDS011;12544;46.760;15.942;2023-10-31T08:33:03;6.05;;;3.03;;
24411;SDS011;12544;46.760;15.942;2023-10-31T08:35:29;7.20;;;2.80;;
24411;SDS011;12544;46.760;15.942;2023-10-31T08:37:54;6.47;;;3.20;;
24411;SDS011;12544;46.760;15.942;2023-10-31T08:40:20;6.80;;;2.97;;
24411;SDS011;12544;46.760;15.942;2023-10-31T08:42:46;10.98;;;3.60;;
24411;SDS011;12544;46.760;15.942;2023-10-31T08:45:11;6.57;;;3.17;;
24411;SDS011;12544;46.760;15.942;2023-10-31T08:47:37;5.57;;;2.75;;
24411;SDS011;12544;46.760;15.942;2023-10-31T08:50:03;4.90;;;2.90;;
24411;SDS011;12544;46.760;15.942;2023-10-31T08:52:29;10.40;;;3.05;;
24411;SDS011;12544;46.760;15.942;2023-10-31T08:54:54;9.25;;;3.13;;
24411;SDS011;12544;46.760;15.942;2023-10-31T08:57:22;6.03;;;2.60;;
24411;SDS011;12544;46.760;15.942;2023-10-31T08:59:47;6.45;;;2.70;;
24411;SDS011;12544;46.760;15.942;2023-10-31T09:02:13;6.53;;;2.75;;
24411;SDS011;12544;46.760;15.942;2023-10-31T09:04:39;9.65;;;3.00;;
24411;SDS011;12544;46.760;15.942;2023-10-31T09:07:04;4.80;;;2.53;;
24411;SDS011;12544;46.760;15.942;2023-10-31T09:09:30;6.82;;;2.70;;
24411;SDS011;12544;46.760;15.942;2023-10-31T09:11:55;8.77;;;3.00;;
24411;SDS011;12544;46.760;15.942;2023-10-31T09:14:21;7.85;;;2.70;;
24411;SDS011;12544;46.760;15.942;2023-10-31T09:16:47;6.90;;;2.55;;
24411;SDS011;12544;46.760;15.942;2023-10-31T09:19:12;4.00;;;2.30;;
24411;SDS011;12544;46.760;15.942;2023-10-31T09:21:38;8.38;;;2.72;;
24411;SDS011;12544;46.760;15.942;2023-10-31T09:24:03;6.47;;;2.65;;
24411;SDS011;12544;46.760;15.942;2023-10-31T09:26:29;5.18;;;2.40;;
24411;SDS011;12544;46.760;15.942;2023-10-31T09:28:55;4.75;;;2.55;;
24411;SDS011;12544;46.760;15.942;2023-10-31T09:31:21;5.47;;;2.85;;
24411;SDS011;12544;46.760;15.942;2023-10-31T09:33:46;6.88;;;3.17;;
24411;SDS011;12544;46.760;15.942;2023-10-31T09:36:12;6.05;;;2.90;;
24411;SDS011;12544;46.760;15.942;2023-10-31T09:38:39;6.80;;;3.13;;
24411;SDS011;12544;46.760;15.942;2023-10-31T09:41:05;7.20;;;3.47;;
24411;SDS011;12544;46.760;15.942;2023-10-31T09:43:31;6.60;;;3.28;;
24411;SDS011;12544;46.760;15.942;2023-10-31T09:45:57;6.85;;;3.28;;
24411;SDS011;12544;46.760;15.942;2023-10-31T09:48:23;4.43;;;3.30;;
24411;SDS011;12544;46.760;15.942;2023-10-31T09:50:49;8.85;;;3.55;;
24411;SDS011;12544;46.760;15.942;2023-10-31T09:53:15;8.93;;;3.80;;
24411;SDS011;12544;46.760;15.942;2023-10-31T09:55:42;8.10;;;4.40;;
24411;SDS011;12544;46.760;15.942;2023-10-31T09:58:08;9.35;;;3.90;;
24411;SDS011;12544;46.760;15.942;2023-10-31T10:00:33;9.45;;;3.80;;
24411;SDS011;12544;46.760;15.942;2023-10-31T10:03:02;6.30;;;3.72;;
24411;SDS011;12544;46.760;15.942;2023-10-31T10:05:28;4.65;;;3.92;;
24411;SDS011;12544;46.760;15.942;2023-10-31T10:07:57;7.13;;;2.90;;
24411;SDS011;12544;46.760;15.942;2023-10-31T10:10:23;6.47;;;2.75;;
24411;SDS011;12544;46.760;15.942;2023-10-31T10:12:51;4.47;;;1.95;;
24411;SDS011;12544;46.760;15.942;2023-10-31T10:15:17;5.93;;;1.77;;
24411;SDS011;12544;46.760;15.942;2023-10-31T10:17:52;4.07;;;1.88;;
24411;SDS011;12544;46.760;15.942;2023-10-31T10:20:18;2.08;;;1.20;;
24411;SDS011;12544;46.760;15.942;2023-10-31T10:22:44;1.95;;;0.80;;
24411;SDS011;12544;46.760;15.942;2023-10-31T10:25:11;3.60;;;1.20;;
24411;SDS011;12544;46.760;15.942;2023-10-31T10:27:42;2.13;;;0.80;;
24411;SDS011;12544;46.760;15.942;2023-10-31T10:30:08;3.30;;;1.65;;
24411;SDS011;12544;46.760;15.942;2023-10-31T10:32:34;3.15;;;0.93;;
24411;SDS011;12544;46.760;15.942;2023-10-31T10:35:00;1.60;;;1.20;;
24411;SDS011;12544;46.760;15.942;2023-10-31T10:37:26;2.42;;;1.05;;
24411;SDS011;12544;46.760;15.942;2023-10-31T10:39:52;2.13;;;1.00;;
24411;SDS011;12544;46.760;15.942;2023-10-31T10:45:03;2.47;;;1.05;;
24411;SDS011;12544;46.760;15.942;2023-10-31T10:47:32;1.48;;;1.00;;
24411;SDS011;12544;46.760;15.942;2023-10-31T10:50:00;1.80;;;1.13;;
24411;SDS011;12544;46.760;15.942;2023-10-31T10:52:28;1.33;;;0.95;;
24411;SDS011;12544;46.760;15.942;2023-10-31T10:55:04;2.38;;;1.10;;
24411;SDS011;12544;46.760;15.942;2023-10-31T11:00:25;2.33;;;1.45;;
24411;SDS011;12544;46.760;15.942;2023-10-31T11:02:52;2.28;;;0.90;;
24411;SDS011;12544;46.760;15.942;2023-10-31T11:05:19;1.92;;;1.38;;
24411;SDS011;12544;46.760;15.942;2023-10-31T11:07:46;1.38;;;0.70;;
24411;SDS011;12544;46.760;15.942;2023-10-31T11:10:12;0.57;;;0.57;;
24411;SDS011;12544;46.760;15.942;2023-10-31T11:12:39;1.30;;;0.60;;
24411;SDS011;12544;46.760;15.942;2023-10-31T11:15:06;2.30;;;0.90;;
24411;SDS011;12544;46.760;15.942;2023-10-31T11:17:37;0.90;;;0.50;;
24411;SDS011;12544;46.760;15.942;2023-10-31T11:20:04;0.60;;;0.50;;
24411;SDS011;12544;46.760;15.942;2023-10-31T11:22:44;0.68;;;0.68;;
24411;SDS011;12544;46.760;15.942;2023-10-31T11:25:18;1.85;;;0.70;;
24411;SDS011;12544;46.760;15.942;2023-10-31T11:27:51;1.05;;;0.60;;
24411;SDS011;12544;46.760;15.942;2023-10-31T11:30:21;1.63;;;0.70;;
24411;SDS011;12544;46.760;15.942;2023-10-31T11:32:53;1.33;;;0.60;;
24411;SDS011;12544;46.760;15.942;2023-10-31T11:35:23;0.90;;;0.50;;
24411;SDS011;12544;46.760;15.942;2023-10-31T11:37:49;0.80;;;0.75;;
24411;SDS011;12544;46.760;15.942;2023-10-31T11:40:29;0.90;;;0.68;;
24411;SDS011;12544;46.760;15.942;2023-10-31T11:42:58;1.10;;;0.75;;
24411;SDS011;12544;46.760;15.942;2023-10-31T11:48:12;2.25;;;1.27;;
24411;SDS011;12544;46.760;15.942;2023-10-31T11:50:39;1.23;;;0.90;;
24411;SDS011;12544;46.760;15.942;2023-10-31T11:53:06;0.77;;;0.70;;
24411;SDS011;12544;46.760;15.942;2023-10-31T11:55:42;1.80;;;0.60;;
24411;SDS011;12544;46.760;15.942;2023-10-31T12:01:04;2.20;;;0.80;;
24411;SDS011;12544;46.760;15.942;2023-10-31T12:04:03;1.40;;;1.10;;
24411;SDS011;12544;46.760;15.942;2023-10-31T12:06:22;0.88;;;0.77;;
24411;SDS011;12544;46.760;15.942;2023-10-31T12:08:48;1.23;;;1.13;;
24411;SDS011;12544;46.760;15.942;2023-10-31T12:14:02;1.30;;;1.20;;
24411;SDS011;12544;46.760;15.942;2023-10-31T12:16:30;1.70;;;0.80;;
24411;SDS011;12544;46.760;15.942;2023-10-31T12:18:58;0.85;;;0.85;;
24411;SDS011;12544;46.760;15.942;2023-10-31T12:21:44;1.42;;;1.20;;
24411;SDS011;12544;46.760;15.942;2023-10-31T12:24:15;0.93;;;0.90;;
24411;SDS011;12544;46.760;15.942;2023-10-31T12:26:42;1.15;;;0.90;;
24411;SDS011;12544;46.760;15.942;2023-10-31T12:31:51;0.77;;;0.40;;
24411;SDS011;12544;46.760;15.942;2023-10-31T12:34:18;0.55;;;0.50;;
24411;SDS011;12544;46.760;15.942;2023-10-31T12:36:46;0.40;;;0.40;;
24411;SDS011;12544;46.760;15.942;2023-10-31T12:39:13;1.00;;;0.60;;
24411;SDS011;12544;46.760;15.942;2023-10-31T12:41:40;1.85;;;0.60;;
24411;SDS011;12544;46.760;15.942;2023-10-31T12:44:06;1.65;;;0.70;;
24411;SDS011;12544;46.760;15.942;2023-10-31T12:46:38;1.33;;;0.60;;
24411;SDS011;12544;46.760;15.942;2023-10-31T12:49:04;0.65;;;0.43;;
24411;SDS011;12544;46.760;15.942;2023-10-31T12:51:36;1.23;;;0.50;;
24411;SDS011;12544;46.760;15.942;2023-10-31T12:54:02;0.50;;;0.40;;
24411;SDS011;12544;46.760;15.942;2023-10-31T12:56:40;0.73;;;0.50;;
24411;SDS011;12544;46.760;15.942;2023-10-31T12:59:16;0.40;;;0.40;;
24411;SDS011;12544;46.760;15.942;2023-10-31T13:01:44;0.40;;;0.40;;
24411;SDS011;12544;46.760;15.942;2023-10-31T13:04:10;0.47;;;0.47;;
24411;SDS011;12544;46.760;15.942;2023-10-31T13:06:36;0.40;;;0.40;;
24411;SDS011;12544;46.760;15.942;2023-10-31T13:09:03;1.45;;;0.60;;
24411;SDS011;12544;46.760;15.942;2023-10-31T13:11:30;0.50;;;0.40;;
24411;SDS011;12544;46.760;15.942;2023-10-31T13:13:56;1.88;;;0.40;;
24411;SDS011;12544;46.760;15.942;2023-10-31T13:16:23;0.40;;;0.40;;
24411;SDS011;12544;46.760;15.942;2023-10-31T13:18:51;2.28;;;0.40;;
24411;SDS011;12544;46.760;15.942;2023-10-31T13:21:18;2.42;;;0.50;;
24411;SDS011;12544;46.760;15.942;2023-10-31T13:23:44;0.65;;;0.40;;
24411;SDS011;12544;46.760;15.942;2023-10-31T13:26:11;1.42;;;0.40;;
24411;SDS011;12544;46.760;15.942;2023-10-31T13:28:37;0.50;;;0.50;;
24411;SDS011;12544;46.760;15.942;2023-10-31T13:31:04;0.38;;;0.38;;
24411;SDS011;12544;46.760;15.942;2023-10-31T13:33:30;0.40;;;0.40;;
24411;SDS011;12544;46.760;15.942;2023-10-31T13:35:56;0.63;;;0.63;;
24411;SDS011;12544;46.760;15.942;2023-10-31T13:38:22;0.80;;;0.75;;
24411;SDS011;12544;46.760;15.942;2023-10-31T13:40:47;0.70;;;0.40;;
24411;SDS011;12544;46.760;15.942;2023-10-31T13:43:13;2.00;;;0.90;;
24411;SDS011;12544;46.760;15.942;2023-10-31T13:45:38;1.52;;;0.90;;
24411;SDS011;12544;46.760;15.942;2023-10-31T13:48:04;2.47;;;0.73;;
24411;SDS011;12544;46.760;15.942;2023-10-31T13:50:30;0.85;;;0.52;;
24411;SDS011;12544;46.760;15.942;2023-10-31T13:52:55;1.80;;;0.50;;
24411;SDS011;12544;46.760;15.942;2023-10-31T13:55:21;1.02;;;0.40;;
24411;SDS011;12544;46.760;15.942;2023-10-31T13:57:48;1.25;;;0.70;;
24411;SDS011;12544;46.760;15.942;2023-10-31T14:00:14;0.50;;;0.50;;
24411;SDS011;12544;46.760;15.942;2023-10-31T14:02:40;1.13;;;0.60;;
24411;SDS011;12544;46.760;15.942;2023-10-31T14:05:06;0.90;;;0.50;;
24411;SDS011;12544;46.760;15.942;2023-10-31T14:07:32;1.13;;;0.75;;
24411;SDS011;12544;46.760;15.942;2023-10-31T14:09:57;0.70;;;0.70;;
24411;SDS011;12544;46.760;15.942;2023-10-31T14:12:24;1.48;;;1.00;;
24411;SDS011;12544;46.760;15.942;2023-10-31T14:14:50;2.38;;;0.80;;
24411;SDS011;12544;46.760;15.942;2023-10-31T14:17:16;1.00;;;0.70;;
24411;SDS011;12544;46.760;15.942;2023-10-31T14:19:43;2.20;;;0.65;;
24411;SDS011;12544;46.760;15.942;2023-10-31T14:22:08;1.33;;;0.80;;
24411;SDS011;12544;46.760;15.942;2023-10-31T14:24:34;3.13;;;1.27;;
24411;SDS011;12544;46.760;15.942;2023-10-31T14:27:00;3.05;;;1.10;;
24411;SDS011;12544;46.760;15.942;2023-10-31T14:29:26;1.52;;;1.20;;
24411;SDS011;12544;46.760;15.942;2023-10-31T14:31:52;1.00;;;0.80;;
24411;SDS011;12544;46.760;15.942;2023-10-31T14:34:19;2.08;;;0.93;;
24411;SDS011;12544;46.760;15.942;2023-10-31T14:36:46;1.20;;;0.98;;
24411;SDS011;12544;46.760;15.942;2023-10-31T14:39:11;2.88;;;1.10;;
24411;SDS011;12544;46.760;15.942;2023-10-31T14:41:37;1.67;;;0.70;;
24411;SDS011;12544;46.760;15.942;2023-10-31T14:44:03;3.15;;;0.77;;
24411;SDS011;12544;46.760;15.942;2023-10-31T14:46:29;1.10;;;1.00;;